createdAt,value
2019-04-06T00:02:49.971Z,98.50
2019-04-06T00:08:17.377Z,98.30
2019-04-06T00:14:15.842Z,98.90
2019-04-06T00:19:36.348Z,99.00
2019-04-06T00:25:08.976Z,99.30
2019-04-06T00:31:28.003Z,99.90
2019-04-06T00:36:40.899Z,99.90
2019-04-06T00:48:09.620Z,99.90
2019-04-06T00:53:34.300Z,99.90
2019-04-06T00:59:12.829Z,99.90
2019-04-06T01:04:32.594Z,99.90
2019-04-06T01:10:23.760Z,99.90
2019-04-06T01:16:13.825Z,99.90
2019-04-06T01:26:39.399Z,99.90
2019-04-06T01:32:18.428Z,99.90
2019-04-06T01:37:31.027Z,99.90
2019-04-06T01:43:33.553Z,99.90
2019-04-06T01:49:24.245Z,99.90
2019-04-06T01:55:02.231Z,99.90
2019-04-06T02:00:10.349Z,99.90
2019-04-06T02:11:48.093Z,99.90
2019-04-06T02:17:30.609Z,99.90
2019-04-06T02:22:43.850Z,99.90
2019-04-06T02:28:27.289Z,99.90
2019-04-06T02:34:08.982Z,99.90
2019-04-06T02:39:56.797Z,99.90
2019-04-06T02:45:14.308Z,99.90
2019-04-06T02:50:36.596Z,99.90
2019-04-06T02:56:20.559Z,99.90
2019-04-06T03:01:49.635Z,99.90
2019-04-06T03:07:59.815Z,99.90
2019-04-06T03:13:40.243Z,99.90
2019-04-06T03:30:18.705Z,99.90
2019-04-06T03:35:59.067Z,99.90
2019-04-06T03:41:46.490Z,99.90
2019-04-06T03:47:45.178Z,99.90
2019-04-06T03:52:56.239Z,99.90
2019-04-06T04:10:07.578Z,99.90
2019-04-06T04:15:56.332Z,99.90
2019-04-06T04:21:34.438Z,99.90
2019-04-06T04:27:29.352Z,99.90
2019-04-06T04:33:11.535Z,99.90
2019-04-06T04:44:32.600Z,99.90
2019-04-06T04:55:55.923Z,99.90
2019-04-06T05:01:08.982Z,99.90
2019-04-06T05:06:47.777Z,99.90
2019-04-06T05:12:58.795Z,99.90
2019-04-06T05:24:01.921Z,99.90
2019-04-06T05:29:26.049Z,99.90
2019-04-06T05:34:54.127Z,99.90
2019-04-06T05:39:54.292Z,99.90
2019-04-06T05:44:58.011Z,99.90
2019-04-06T05:50:01.814Z,99.90
2019-04-06T05:55:05.757Z,99.90
2019-04-06T06:00:11.313Z,99.90
2019-04-06T06:05:15.490Z,99.50
2019-04-06T06:10:19.305Z,99.90
2019-04-06T06:15:23.425Z,99.40
2019-04-06T06:20:27.166Z,99.00
2019-04-06T06:25:30.923Z,98.80
2019-04-06T06:30:34.669Z,98.10
2019-04-06T06:35:38.521Z,98.20
2019-04-06T06:40:42.380Z,98.40
2019-04-06T06:45:46.075Z,98.10
2019-04-06T06:50:49.855Z,97.20
2019-04-06T06:55:54.016Z,97.10
2019-04-06T07:00:58.351Z,96.70
2019-04-06T07:06:02.061Z,95.80
2019-04-06T07:11:06.153Z,95.30
2019-04-06T07:16:10.031Z,95.60
2019-04-06T07:21:16.473Z,94.80
2019-04-06T07:26:19.837Z,94.30
2019-04-06T07:31:23.554Z,93.90
2019-04-06T07:36:27.856Z,93.10
2019-04-06T07:41:31.951Z,92.50
2019-04-06T07:46:35.643Z,92.50
2019-04-06T07:51:39.369Z,91.40
2019-04-06T07:56:43.274Z,90.40
2019-04-06T08:01:48.704Z,89.50
2019-04-06T08:06:53.973Z,85.20
2019-04-06T08:11:58.256Z,73.00
2019-04-06T08:17:03.032Z,60.40
2019-04-06T08:22:08.503Z,52.10
2019-04-06T08:27:13.290Z,47.50
2019-04-06T08:32:18.031Z,45.00
2019-04-06T08:37:25.706Z,42.90
2019-04-06T08:42:31.908Z,41.70
2019-04-06T08:47:38.732Z,39.70
2019-04-06T08:52:44.320Z,37.50
2019-04-06T08:57:48.638Z,35.70
2019-04-06T09:02:56.036Z,34.00
2019-04-06T09:08:02.218Z,34.00
2019-04-06T09:13:07.870Z,33.50
2019-04-06T09:18:12.653Z,32.70
2019-04-06T09:23:18.120Z,30.30
2019-04-06T09:28:24.624Z,29.60
2019-04-06T09:33:29.509Z,28.80
2019-04-06T09:38:34.056Z,28.30
2019-04-06T09:43:40.292Z,28.00
2019-04-06T09:48:52.955Z,27.00
2019-04-06T09:54:23.847Z,26.80
2019-04-06T09:59:38.778Z,25.90
2019-04-06T10:05:02.451Z,23.00
2019-04-06T10:10:33.782Z,22.50
2019-04-06T10:15:57.245Z,22.90
2019-04-06T10:21:26.876Z,21.70
2019-04-06T10:26:59.404Z,22.50
2019-04-06T10:32:22.463Z,22.70
2019-04-06T10:37:39.597Z,23.00
2019-04-06T10:43:08.737Z,22.70
2019-04-06T10:48:34.714Z,22.10
2019-04-06T10:54:03.730Z,22.30
2019-04-06T10:59:29.735Z,22.00
2019-04-06T11:04:44.234Z,21.60
2019-04-06T11:10:06.469Z,22.70
2019-04-06T11:15:28.777Z,22.00
2019-04-06T11:20:54.726Z,22.10
2019-04-06T11:26:19.069Z,21.70
2019-04-06T11:31:41.214Z,21.70
2019-04-06T11:37:07.187Z,21.70
2019-04-06T11:42:27.095Z,22.20
2019-04-06T11:48:02.382Z,24.50
2019-04-06T11:53:17.830Z,24.30
2019-04-06T11:58:28.020Z,23.70
2019-04-06T12:03:38.009Z,23.00
2019-04-06T12:08:48.686Z,23.30
2019-04-06T12:14:11.020Z,23.50
2019-04-06T12:19:25.164Z,23.30
2019-04-06T12:24:46.977Z,23.90
2019-04-06T12:30:00.389Z,23.30
2019-04-06T12:35:14.670Z,23.10
2019-04-06T12:40:42.532Z,23.60
2019-04-06T12:46:00.275Z,24.50
2019-04-06T12:51:22.209Z,25.60
2019-04-06T12:56:38.486Z,26.10
2019-04-06T13:01:59.794Z,28.50
2019-04-06T13:07:22.893Z,29.80
2019-04-06T13:12:42.904Z,28.70
2019-04-06T13:17:53.028Z,28.10
2019-04-06T13:23:22.165Z,27.70
2019-04-06T13:28:46.762Z,28.50
2019-04-06T13:33:57.172Z,29.50
2019-04-06T13:39:26.194Z,30.70
2019-04-06T13:44:51.752Z,30.40
2019-04-06T13:50:08.660Z,31.70
2019-04-06T13:55:23.888Z,32.00
2019-04-06T14:00:45.584Z,32.70
2019-04-06T14:06:23.551Z,33.40
2019-04-06T14:11:45.471Z,33.10
2019-04-06T14:17:23.794Z,33.10
2019-04-06T14:22:42.065Z,34.60
2019-04-06T14:27:53.799Z,34.60
2019-04-06T14:33:25.520Z,37.10
2019-04-06T14:39:00.976Z,38.50
2019-04-06T14:44:26.778Z,39.70
2019-04-06T14:49:41.577Z,41.10
2019-04-06T14:55:07.952Z,40.10
2019-04-06T15:00:31.145Z,40.20
2019-04-06T15:05:54.179Z,40.30
2019-04-06T15:11:04.354Z,40.60
2019-04-06T15:16:27.311Z,39.30
2019-04-06T15:21:38.982Z,40.60
2019-04-06T15:27:05.885Z,41.00
2019-04-06T15:32:44.690Z,41.60
2019-04-06T15:38:20.204Z,42.40
2019-04-06T15:43:44.636Z,41.30
2019-04-06T15:49:08.137Z,43.40
2019-04-06T15:54:31.519Z,45.10
2019-04-06T15:59:48.084Z,46.90
2019-04-06T16:05:02.125Z,56.70
2019-04-06T16:10:25.168Z,56.60
2019-04-06T16:15:51.200Z,55.00
2019-04-06T16:21:23.415Z,53.00
2019-04-06T16:26:40.127Z,52.80
2019-04-06T16:32:12.320Z,52.30
2019-04-06T16:37:33.361Z,56.80
2019-04-06T16:42:55.203Z,59.70
2019-04-06T16:48:12.790Z,62.30
2019-04-06T16:53:33.046Z,63.80
2019-04-06T16:58:56.242Z,65.70
2019-04-06T17:04:14.973Z,68.30
2019-04-06T17:09:34.212Z,69.20
2019-04-06T17:14:51.759Z,72.50
2019-04-06T17:20:09.081Z,74.60
2019-04-06T17:25:30.831Z,78.10
2019-04-06T17:30:43.403Z,78.00
2019-04-06T17:35:58.301Z,78.30
2019-04-06T17:41:11.791Z,79.50
2019-04-06T17:46:24.350Z,80.90
2019-04-06T17:52:03.058Z,81.90
2019-04-06T17:57:15.641Z,84.30
2019-04-06T18:02:29.272Z,84.30
2019-04-06T18:08:07.333Z,85.90
2019-04-06T18:13:20.025Z,86.00
2019-04-06T18:18:23.698Z,87.00
2019-04-06T18:23:27.414Z,88.60
2019-04-06T18:28:31.750Z,89.10
2019-04-06T18:33:35.856Z,89.90
2019-04-06T18:38:45.827Z,90.60
2019-04-06T18:43:49.482Z,91.30
2019-04-06T18:48:53.164Z,92.20
2019-04-06T18:53:57.329Z,92.70
2019-04-06T18:59:01.116Z,93.10
2019-04-06T19:04:05.545Z,93.40
2019-04-06T19:09:20.667Z,93.60
2019-04-06T19:14:15.919Z,93.80
2019-04-06T19:19:19.707Z,94.20
2019-04-06T19:24:24.894Z,94.60
2019-04-06T19:29:29.935Z,95.00
2019-04-06T19:34:33.886Z,95.30
2019-04-06T19:39:37.610Z,95.60
2019-04-06T19:44:41.509Z,95.80
2019-04-06T19:49:45.664Z,96.00
2019-04-06T19:54:50.207Z,96.20
2019-04-06T19:59:55.016Z,96.20
2019-04-06T20:04:59.274Z,96.40
2019-04-06T20:10:03.535Z,96.70
2019-04-06T20:15:08.076Z,96.70
2019-04-06T20:20:12.458Z,97.00
2019-04-06T20:25:16.263Z,97.20
2019-04-06T20:30:20.654Z,97.50
2019-04-06T20:35:25.150Z,97.60
2019-04-06T20:40:29.261Z,97.80
2019-04-06T20:45:36.319Z,98.00
2019-04-06T20:50:41.635Z,98.20
2019-04-06T20:55:45.434Z,98.40
2019-04-06T21:00:51.285Z,98.50
2019-04-06T21:05:55.463Z,98.50
2019-04-06T21:10:59.246Z,98.50
2019-04-06T21:16:03.783Z,98.70
2019-04-06T21:21:07.812Z,98.90
2019-04-06T21:26:12.523Z,99.00
2019-04-06T21:31:16.343Z,99.20
2019-04-06T21:36:20.746Z,99.40
2019-04-06T21:41:27.432Z,99.90
2019-04-06T21:46:33.662Z,99.90
2019-04-06T21:51:39.116Z,99.90
2019-04-06T21:56:43.405Z,99.90
2019-04-06T22:01:47.731Z,99.90
2019-04-06T22:06:51.760Z,99.90
2019-04-06T22:11:55.885Z,99.90
2019-04-06T22:16:59.951Z,99.90
2019-04-06T22:22:04.058Z,99.90
2019-04-06T22:27:07.750Z,99.90
2019-04-06T22:32:11.427Z,99.90
2019-04-06T22:37:15.130Z,99.90
2019-04-06T22:42:19.340Z,99.90
2019-04-06T22:47:23.572Z,99.90
2019-04-06T22:52:27.443Z,99.90
2019-04-06T22:57:31.764Z,99.90
2019-04-06T23:02:45.557Z,99.90
2019-04-06T23:07:49.606Z,99.90
2019-04-06T23:12:54.122Z,99.90
2019-04-06T23:17:58.068Z,99.90
2019-04-06T23:23:02.238Z,99.90
2019-04-06T23:28:05.985Z,99.90
2019-04-06T23:33:09.666Z,99.90
2019-04-06T23:38:13.345Z,99.90
2019-04-06T23:50:01.903Z,99.90
2019-04-06T23:55:32.899Z,99.90
